createdAt,value
2019-02-23T00:01:36.419Z,-4.90
2019-02-23T00:04:07.017Z,-4.90
2019-02-23T00:06:37.617Z,-4.90
2019-02-23T00:09:08.514Z,-5.00
2019-02-23T00:11:39.341Z,-5.00
2019-02-23T00:14:09.924Z,-5.10
2019-02-23T00:16:40.451Z,-5.10
2019-02-23T00:19:11.022Z,-5.10
2019-02-23T00:21:41.564Z,-5.10
2019-02-23T00:24:12.062Z,-5.10
2019-02-23T00:26:42.666Z,-5.10
2019-02-23T00:29:13.462Z,-5.00
2019-02-23T00:31:44.366Z,-5.00
2019-02-23T00:34:15.072Z,-5.10
2019-02-23T00:36:45.952Z,-5.10
2019-02-23T00:39:16.515Z,-5.10
2019-02-23T00:41:47.009Z,-5.00
2019-02-23T00:44:17.594Z,-5.00
2019-02-23T00:46:48.112Z,-5.00
2019-02-23T00:49:18.612Z,-5.00
2019-02-23T00:51:51.708Z,-5.00
2019-02-23T00:54:21.320Z,-5.10
2019-02-23T00:56:51.803Z,-5.20
2019-02-23T00:59:22.318Z,-5.20
2019-02-23T01:01:52.858Z,-5.30
2019-02-23T01:04:23.324Z,-5.40
2019-02-23T01:06:54.100Z,-5.40
2019-02-23T01:09:24.680Z,-5.50
2019-02-23T01:11:55.303Z,-5.60
2019-02-23T01:14:26.831Z,-5.60
2019-02-23T01:16:57.308Z,-5.60
2019-02-23T01:19:27.758Z,-5.60
2019-02-23T01:21:58.255Z,-5.60
2019-02-23T01:24:29.012Z,-5.50
2019-02-23T01:26:59.680Z,-5.50
2019-02-23T01:29:30.212Z,-5.60
2019-02-23T01:32:01.848Z,-5.60
2019-02-23T01:34:32.354Z,-5.60
2019-02-23T01:37:02.801Z,-5.70
2019-02-23T01:39:33.386Z,-5.70
2019-02-23T01:42:03.828Z,-5.60
2019-02-23T01:44:34.324Z,-5.60
2019-02-23T01:47:04.830Z,-5.60
2019-02-23T01:49:35.322Z,-5.60
2019-02-23T01:52:05.728Z,-5.60
2019-02-23T01:54:36.187Z,-5.60
2019-02-23T01:57:06.805Z,-5.60
2019-02-23T01:59:37.353Z,-5.70
2019-02-23T02:02:08.128Z,-5.70
2019-02-23T02:04:38.817Z,-5.70
2019-02-23T02:07:09.408Z,-5.70
2019-02-23T02:09:40.012Z,-5.70
2019-02-23T02:12:11.199Z,-5.70
2019-02-23T02:14:41.848Z,-5.70
2019-02-23T02:17:12.612Z,-5.80
2019-02-23T02:19:43.175Z,-5.80
2019-02-23T02:22:13.639Z,-5.80
2019-02-23T02:24:44.212Z,-5.80
2019-02-23T02:27:14.706Z,-5.80
2019-02-23T02:29:45.224Z,-5.90
2019-02-23T02:32:15.765Z,-5.90
2019-02-23T02:34:46.206Z,-5.90
2019-02-23T02:37:16.763Z,-5.90
2019-02-23T02:39:47.306Z,-5.90
2019-02-23T02:42:17.782Z,-5.90
2019-02-23T02:44:48.304Z,-6.00
2019-02-23T02:47:19.992Z,-5.90
2019-02-23T02:49:50.963Z,-5.90
2019-02-23T02:52:22.509Z,-5.90
2019-02-23T02:54:53.050Z,-5.90
2019-02-23T02:57:23.522Z,-5.90
2019-02-23T02:59:54.008Z,-5.90
2019-02-23T03:02:24.440Z,-5.90
2019-02-23T03:04:54.994Z,-5.90
2019-02-23T03:07:25.497Z,-5.90
2019-02-23T03:09:55.980Z,-5.90
2019-02-23T03:12:26.418Z,-6.00
2019-02-23T03:14:56.927Z,-6.00
2019-02-23T03:17:27.421Z,-6.00
2019-02-23T03:19:57.882Z,-6.00
2019-02-23T03:22:28.390Z,-6.00
2019-02-23T03:24:58.929Z,-6.10
2019-02-23T03:27:29.506Z,-6.10
2019-02-23T03:30:00.022Z,-6.10
2019-02-23T03:32:30.582Z,-6.10
2019-02-23T03:35:01.168Z,-6.20
2019-02-23T03:37:31.949Z,-6.20
2019-02-23T03:40:02.419Z,-6.30
2019-02-23T03:42:32.874Z,-6.30
2019-02-23T03:45:03.510Z,-6.30
2019-02-23T03:47:34.002Z,-6.30
2019-02-23T03:50:04.592Z,-6.40
2019-02-23T03:52:35.104Z,-6.40
2019-02-23T03:55:05.864Z,-6.50
2019-02-23T03:57:36.291Z,-6.50
2019-02-23T04:00:07.931Z,-6.40
2019-02-23T04:02:38.522Z,-6.50
2019-02-23T04:05:09.076Z,-6.50
2019-02-23T04:07:39.540Z,-6.50
2019-02-23T04:10:10.166Z,-6.50
2019-02-23T04:12:40.787Z,-6.60
2019-02-23T04:15:11.423Z,-6.60
2019-02-23T04:17:42.021Z,-6.60
2019-02-23T04:20:12.416Z,-6.60
2019-02-23T04:22:42.954Z,-6.60
2019-02-23T04:25:13.495Z,-6.60
2019-02-23T04:27:45.811Z,-6.60
2019-02-23T04:30:16.301Z,-6.60
2019-02-23T04:32:46.794Z,-6.60
2019-02-23T04:35:17.234Z,-6.60
2019-02-23T04:37:47.756Z,-6.60
2019-02-23T04:40:18.262Z,-6.60
2019-02-23T04:42:48.770Z,-6.60
2019-02-23T04:45:19.242Z,-6.60
2019-02-23T04:47:49.681Z,-6.70
2019-02-23T04:50:20.133Z,-6.70
2019-02-23T04:52:50.731Z,-6.60
2019-02-23T04:55:21.289Z,-6.70
2019-02-23T04:57:51.799Z,-6.60
2019-02-23T05:00:22.341Z,-6.60
2019-02-23T05:02:52.781Z,-6.70
2019-02-23T05:05:23.497Z,-6.70
2019-02-23T05:07:53.958Z,-6.70
2019-02-23T05:10:24.424Z,-6.80
2019-02-23T05:12:54.992Z,-6.90
2019-02-23T05:15:25.513Z,-6.90
2019-02-23T05:17:55.998Z,-6.80
2019-02-23T05:20:26.512Z,-6.80
2019-02-23T05:22:57.082Z,-6.90
2019-02-23T05:25:27.537Z,-6.90
2019-02-23T05:27:58.194Z,-6.90
2019-02-23T05:30:28.699Z,-6.80
2019-02-23T05:32:59.200Z,-6.80
2019-02-23T05:35:29.766Z,-6.80
2019-02-23T05:38:00.324Z,-6.90
2019-02-23T05:40:30.884Z,-6.80
2019-02-23T05:43:01.579Z,-6.60
2019-02-23T05:45:32.131Z,-6.50
2019-02-23T05:48:02.780Z,-6.50
2019-02-23T05:50:33.345Z,-6.50
2019-02-23T05:53:03.849Z,-6.40
2019-02-23T05:55:34.377Z,-6.40
2019-02-23T05:58:04.818Z,-6.40
2019-02-23T06:00:35.312Z,-6.40
2019-02-23T06:03:05.802Z,-6.40
2019-02-23T06:05:36.334Z,-6.30
2019-02-23T06:08:06.839Z,-6.20
2019-02-23T06:10:37.387Z,-6.10
2019-02-23T06:13:07.857Z,-6.10
2019-02-23T06:15:38.354Z,-6.10
2019-02-23T06:18:08.852Z,-6.10
2019-02-23T06:20:39.413Z,-6.10
2019-02-23T06:23:09.893Z,-6.00
2019-02-23T06:25:40.473Z,-5.90
2019-02-23T06:28:10.998Z,-5.80
2019-02-23T06:30:41.595Z,-5.80
2019-02-23T06:33:12.157Z,-5.60
2019-02-23T06:35:42.693Z,-5.50
2019-02-23T06:38:13.694Z,-5.60
2019-02-23T06:40:44.171Z,-5.60
2019-02-23T06:43:14.616Z,-5.60
2019-02-23T06:45:45.312Z,-5.50
2019-02-23T06:48:15.770Z,-5.50
2019-02-23T06:50:46.517Z,-5.30
2019-02-23T06:53:17.023Z,-5.30
2019-02-23T06:55:47.665Z,-5.20
2019-02-23T06:58:18.103Z,-5.10
2019-02-23T07:00:48.557Z,-5.10
2019-02-23T07:03:19.169Z,-5.00
2019-02-23T07:05:50.465Z,-5.00
2019-02-23T07:08:20.917Z,-4.80
2019-02-23T07:10:51.378Z,-4.80
2019-02-23T07:13:25.120Z,-4.70
2019-02-23T07:15:55.549Z,-4.70
2019-02-23T07:18:26.117Z,-4.50
2019-02-23T07:20:56.626Z,-4.40
2019-02-23T07:23:27.227Z,-4.10
2019-02-23T07:25:57.740Z,-4.00
2019-02-23T07:28:28.269Z,-3.70
2019-02-23T07:30:58.931Z,-3.60
2019-02-23T07:33:32.860Z,-3.40
2019-02-23T07:36:01.997Z,-3.10
2019-02-23T07:38:35.456Z,-3.10
2019-02-23T07:41:05.267Z,-3.00
2019-02-23T07:43:35.812Z,-3.00
2019-02-23T07:46:07.762Z,-2.90
2019-02-23T07:48:38.447Z,-2.70
2019-02-23T07:51:09.145Z,-2.90
2019-02-23T07:53:39.748Z,-3.10
2019-02-23T07:56:11.291Z,-3.00
2019-02-23T07:58:41.878Z,-3.00
2019-02-23T08:01:12.498Z,-2.90
2019-02-23T08:03:42.973Z,-3.00
2019-02-23T08:06:13.541Z,-3.10
2019-02-23T08:08:44.235Z,-3.20
2019-02-23T08:11:16.160Z,-3.10
2019-02-23T08:13:46.723Z,-3.10
2019-02-23T08:16:17.381Z,-3.20
2019-02-23T08:18:48.361Z,-3.50
2019-02-23T08:21:18.834Z,-3.60
2019-02-23T08:23:49.369Z,-3.60
2019-02-23T08:26:20.973Z,-3.70
2019-02-23T08:28:51.542Z,-3.50
2019-02-23T08:31:23.607Z,-3.60
2019-02-23T08:33:54.100Z,-3.40
2019-02-23T08:36:24.820Z,-3.30
2019-02-23T08:38:55.489Z,-3.20
2019-02-23T08:41:26.113Z,-3.20
2019-02-23T08:43:57.039Z,-3.20
2019-02-23T08:46:27.546Z,-3.20
2019-02-23T08:48:58.081Z,-3.00
2019-02-23T08:51:28.658Z,-3.00
2019-02-23T08:53:59.163Z,-2.90
2019-02-23T08:56:31.069Z,-2.60
2019-02-23T08:59:01.718Z,-2.60
2019-02-23T09:01:32.431Z,-2.70
2019-02-23T09:04:04.966Z,-2.60
2019-02-23T09:06:35.477Z,-2.60
2019-02-23T09:09:08.248Z,-2.50
2019-02-23T09:11:42.903Z,-2.40
2019-02-23T09:14:13.783Z,-2.40
2019-02-23T09:16:44.387Z,-2.10
2019-02-23T09:19:14.988Z,-1.90
2019-02-23T09:21:45.525Z,-2.10
2019-02-23T09:24:19.367Z,-2.30
2019-02-23T09:26:49.570Z,-2.30
2019-02-23T09:29:20.322Z,-2.30
2019-02-23T09:31:50.843Z,-2.20
2019-02-23T09:34:21.663Z,-1.90
2019-02-23T09:36:52.297Z,-1.90
2019-02-23T09:39:22.947Z,-1.90
2019-02-23T09:41:53.609Z,-1.70
2019-02-23T09:44:24.234Z,-1.70
2019-02-23T09:46:54.842Z,-1.70
2019-02-23T09:49:26.191Z,-1.70
2019-02-23T09:51:57.368Z,-1.80
2019-02-23T09:54:30.650Z,-1.90
2019-02-23T09:57:00.737Z,-1.90
2019-02-23T09:59:31.372Z,-1.90
2019-02-23T10:02:02.173Z,-1.80
2019-02-23T10:04:33.192Z,-1.70
2019-02-23T10:07:03.797Z,-1.50
2019-02-23T10:09:34.429Z,-1.50
2019-02-23T10:12:04.978Z,-1.40
2019-02-23T10:14:35.613Z,-1.20
2019-02-23T10:17:06.273Z,-1.20
2019-02-23T10:19:36.851Z,-1.10
2019-02-23T10:22:07.369Z,-1.00
2019-02-23T10:24:37.979Z,-0.80
2019-02-23T10:27:08.793Z,-1.00
2019-02-23T10:29:41.481Z,-1.10
2019-02-23T10:32:12.051Z,-1.10
2019-02-23T10:34:43.775Z,-0.80
2019-02-23T10:37:14.521Z,-0.70
2019-02-23T10:39:46.235Z,-0.50
2019-02-23T10:42:16.799Z,-0.20
2019-02-23T10:44:47.351Z,0.20
2019-02-23T10:47:17.890Z,0.00
2019-02-23T10:49:49.473Z,0.10
2019-02-23T10:52:21.278Z,0.30
2019-02-23T10:54:52.969Z,0.50
2019-02-23T10:57:24.568Z,0.80
2019-02-23T10:59:55.136Z,0.90
2019-02-23T11:02:26.277Z,0.90
2019-02-23T11:04:57.103Z,0.60
2019-02-23T11:07:27.816Z,0.20
2019-02-23T11:09:58.458Z,0.00
2019-02-23T11:12:29.239Z,0.10
2019-02-23T11:14:59.838Z,0.20
2019-02-23T11:17:30.769Z,0.50
2019-02-23T11:20:01.319Z,0.60
2019-02-23T11:22:33.719Z,0.70
2019-02-23T11:25:04.534Z,0.80
2019-02-23T11:27:35.103Z,0.50
2019-02-23T11:30:07.601Z,0.70
2019-02-23T11:32:38.273Z,0.60
2019-02-23T11:35:09.616Z,0.40
2019-02-23T11:37:42.771Z,0.50
2019-02-23T11:40:13.511Z,0.60
2019-02-23T11:42:44.140Z,0.60
2019-02-23T11:45:14.776Z,0.40
2019-02-23T11:47:45.398Z,0.50
2019-02-23T11:50:16.172Z,0.60
2019-02-23T11:52:46.671Z,0.50
2019-02-23T11:55:18.854Z,0.40
2019-02-23T11:57:49.558Z,0.50
2019-02-23T12:00:20.102Z,0.40
2019-02-23T12:02:52.753Z,0.50
2019-02-23T12:05:22.880Z,0.40
2019-02-23T12:07:53.622Z,0.30
2019-02-23T12:10:24.251Z,0.20
2019-02-23T12:12:54.949Z,0.30
2019-02-23T12:15:25.430Z,0.30
2019-02-23T12:17:56.001Z,0.50
2019-02-23T12:20:26.635Z,0.60
2019-02-23T12:22:57.204Z,0.70
2019-02-23T12:25:27.763Z,0.80
2019-02-23T12:27:59.482Z,1.00
2019-02-23T12:30:32.552Z,0.90
2019-02-23T12:33:02.170Z,1.00
2019-02-23T12:35:33.882Z,0.90
2019-02-23T12:38:04.581Z,0.70
2019-02-23T12:40:35.155Z,0.20
2019-02-23T12:43:05.742Z,0.20
2019-02-23T12:45:36.334Z,0.30
2019-02-23T12:48:07.007Z,0.20
2019-02-23T12:50:37.523Z,0.20
2019-02-23T12:53:08.006Z,0.20
2019-02-23T12:55:38.532Z,0.10
2019-02-23T12:58:09.105Z,0.10
2019-02-23T13:00:39.640Z,0.30
2019-02-23T13:03:11.300Z,0.20
2019-02-23T13:05:43.188Z,0.30
2019-02-23T13:08:14.038Z,0.40
2019-02-23T13:10:44.940Z,0.40
2019-02-23T13:14:11.517Z,0.30
2019-02-23T13:17:16.907Z,0.30
2019-02-23T13:20:40.509Z,0.20
2019-02-23T13:23:30.380Z,0.10
2019-02-23T13:26:28.022Z,0.20
2019-02-23T13:29:42.712Z,0.30
2019-02-23T13:32:41.050Z,0.40
2019-02-23T13:35:42.551Z,0.60
2019-02-23T13:38:49.420Z,0.80
2019-02-23T13:41:57.798Z,0.70
2019-02-23T13:45:05.856Z,0.60
2019-02-23T13:48:17.842Z,0.50
2019-02-23T13:51:50.470Z,0.60
2019-02-23T13:54:39.192Z,0.70
2019-02-23T13:57:55.393Z,0.80
2019-02-23T14:01:13.249Z,0.70
2019-02-23T14:04:23.604Z,0.50
2019-02-23T14:07:40.869Z,0.50
2019-02-23T14:11:04.561Z,0.60
2019-02-23T14:13:56.595Z,0.70
2019-02-23T14:16:46.383Z,0.80
2019-02-23T14:19:46.114Z,1.00
2019-02-23T14:23:02.541Z,1.10
2019-02-23T14:26:16.826Z,1.00
2019-02-23T14:29:27.237Z,1.10
2019-02-23T14:32:38.937Z,0.80
2019-02-23T14:35:41.789Z,0.80
2019-02-23T14:38:54.921Z,0.60
2019-02-23T14:41:49.866Z,0.50
2019-02-23T14:44:55.319Z,0.60
2019-02-23T14:48:04.093Z,0.70
2019-02-23T14:51:20.962Z,0.60
2019-02-23T14:54:45.554Z,0.40
2019-02-23T14:58:12.191Z,0.30
2019-02-23T15:01:19.772Z,0.30
2019-02-23T15:04:55.952Z,0.20
2019-02-23T15:08:02.540Z,0.20
2019-02-23T15:11:12.410Z,0.20
2019-02-23T15:14:26.353Z,0.20
2019-02-23T15:17:49.955Z,0.20
2019-02-23T15:20:52.440Z,0.00
2019-02-23T15:23:35.881Z,-0.10
2019-02-23T15:26:27.690Z,-0.10
2019-02-23T15:29:34.745Z,0.00
2019-02-23T15:32:54.598Z,0.00
2019-02-23T15:36:05.541Z,-0.10
2019-02-23T15:38:55.686Z,-0.10
2019-02-23T15:41:55.360Z,-0.10
2019-02-23T15:45:18.581Z,-0.20
2019-02-23T15:48:26.494Z,-0.30
2019-02-23T15:50:57.239Z,-0.30
2019-02-23T15:53:27.904Z,-0.30
2019-02-23T15:55:58.472Z,-0.30
2019-02-23T15:58:29.106Z,-0.30
2019-02-23T16:00:59.650Z,-0.30
2019-02-23T16:03:30.233Z,-0.30
2019-02-23T16:06:00.762Z,-0.30
2019-02-23T16:08:31.367Z,-0.30
2019-02-23T16:11:01.960Z,-0.30
2019-02-23T16:13:32.546Z,-0.30
2019-02-23T16:16:03.054Z,-0.30
2019-02-23T16:18:33.820Z,-0.30
2019-02-23T16:21:04.553Z,-0.30
2019-02-23T16:23:35.698Z,-0.30
2019-02-23T16:26:06.551Z,-0.30
2019-02-23T16:28:37.013Z,-0.40
2019-02-23T16:31:07.639Z,-0.40
2019-02-23T16:33:38.116Z,-0.40
2019-02-23T16:36:08.766Z,-0.50
2019-02-23T16:38:39.358Z,-0.50
2019-02-23T16:41:10.005Z,-0.50
2019-02-23T16:43:40.552Z,-0.50
2019-02-23T16:46:11.293Z,-0.50
2019-02-23T16:48:41.888Z,-0.50
2019-02-23T16:51:12.450Z,-0.50
2019-02-23T16:53:43.045Z,-0.40
2019-02-23T16:56:13.667Z,-0.50
2019-02-23T16:58:44.385Z,-0.50
2019-02-23T17:01:15.018Z,-0.50
2019-02-23T17:03:45.549Z,-0.60
2019-02-23T17:06:17.532Z,-0.60
2019-02-23T17:08:48.198Z,-0.70
2019-02-23T17:11:18.816Z,-0.70
2019-02-23T17:13:49.569Z,-0.70
2019-02-23T17:16:21.671Z,-0.80
2019-02-23T17:18:52.216Z,-0.80
2019-02-23T17:21:22.896Z,-0.90
2019-02-23T17:23:53.394Z,-0.90
2019-02-23T17:26:25.106Z,-1.00
2019-02-23T17:28:55.662Z,-1.00
2019-02-23T17:31:26.357Z,-1.10
2019-02-23T17:33:57.051Z,-1.10
2019-02-23T17:36:27.710Z,-1.10
2019-02-23T17:38:58.404Z,-1.20
2019-02-23T17:41:29.033Z,-1.20
2019-02-23T17:43:59.717Z,-1.10
2019-02-23T17:46:30.611Z,-1.10
2019-02-23T17:49:01.140Z,-1.10
2019-02-23T17:51:31.696Z,-1.00
2019-02-23T17:54:02.185Z,-1.00
2019-02-23T17:56:32.676Z,-1.00
2019-02-23T17:59:03.258Z,-1.00
2019-02-23T18:01:33.831Z,-0.90
2019-02-23T18:04:04.443Z,-1.00
2019-02-23T18:06:34.964Z,-1.00
2019-02-23T18:09:06.200Z,-1.00
2019-02-23T18:11:38.355Z,-1.00
2019-02-23T18:14:08.989Z,-1.00
2019-02-23T18:16:39.441Z,-1.00
2019-02-23T18:19:12.296Z,-1.10
2019-02-23T18:21:42.897Z,-1.10
2019-02-23T18:24:14.519Z,-1.10
2019-02-23T18:26:45.097Z,-1.10
2019-02-23T18:29:15.701Z,-1.10
2019-02-23T18:31:46.379Z,-1.10
2019-02-23T18:34:17.145Z,-1.20
2019-02-23T18:36:47.776Z,-1.20
2019-02-23T18:39:18.443Z,-1.20
2019-02-23T18:41:49.012Z,-1.20
2019-02-23T18:44:19.605Z,-1.20
2019-02-23T18:46:51.229Z,-1.20
2019-02-23T18:49:21.861Z,-1.20
2019-02-23T18:51:52.545Z,-1.20
2019-02-23T18:54:23.160Z,-1.20
2019-02-23T18:56:53.850Z,-1.20
2019-02-23T18:59:24.354Z,-1.20
2019-02-23T19:01:54.986Z,-1.30
2019-02-23T19:04:25.638Z,-1.30
2019-02-23T19:06:56.529Z,-1.30
2019-02-23T19:09:27.069Z,-1.30
2019-02-23T19:11:57.736Z,-1.30
2019-02-23T19:14:28.445Z,-1.30
2019-02-23T19:16:59.224Z,-1.30
2019-02-23T19:19:30.000Z,-1.30
2019-02-23T19:22:00.697Z,-1.30
2019-02-23T19:24:31.355Z,-1.40
2019-02-23T19:27:01.962Z,-1.40
2019-02-23T19:29:33.571Z,-1.40
2019-02-23T19:32:04.281Z,-1.30
2019-02-23T19:34:34.933Z,-1.30
2019-02-23T19:37:05.598Z,-1.40
2019-02-23T19:39:37.298Z,-1.40
2019-02-23T19:42:07.935Z,-1.50
2019-02-23T19:44:38.698Z,-1.60
2019-02-23T19:47:13.329Z,-1.70
2019-02-23T19:49:43.995Z,-1.70
2019-02-23T19:52:18.773Z,-1.80
2019-02-23T19:54:49.362Z,-1.90
2019-02-23T19:57:19.969Z,-1.80
2019-02-23T19:59:50.608Z,-1.80
2019-02-23T20:02:22.161Z,-1.90
2019-02-23T20:04:52.764Z,-1.80
2019-02-23T20:07:23.381Z,-1.80
2019-02-23T20:09:53.925Z,-1.90
2019-02-23T20:12:24.427Z,-2.00
2019-02-23T20:14:55.025Z,-2.00
2019-02-23T20:17:25.561Z,-2.00
2019-02-23T20:19:56.176Z,-2.10
2019-02-23T20:22:26.699Z,-2.20
2019-02-23T20:24:57.397Z,-2.20
2019-02-23T20:27:27.939Z,-2.30
2019-02-23T20:29:58.595Z,-2.30
2019-02-23T20:32:29.106Z,-2.30
2019-02-23T20:34:59.593Z,-2.30
2019-02-23T20:37:30.181Z,-2.30
2019-02-23T20:40:00.701Z,-2.40
2019-02-23T20:42:31.796Z,-2.40
2019-02-23T20:45:02.323Z,-2.40
2019-02-23T20:47:33.483Z,-2.50
2019-02-23T20:50:04.428Z,-2.50
2019-02-23T20:52:35.818Z,-2.50
2019-02-23T20:55:06.697Z,-2.50
2019-02-23T20:57:37.477Z,-2.60
2019-02-23T21:00:08.567Z,-2.50
2019-02-23T21:02:40.803Z,-2.50
2019-02-23T21:05:11.551Z,-2.60
2019-02-23T21:07:42.208Z,-2.50
2019-02-23T21:10:12.651Z,-2.50
2019-02-23T21:12:43.248Z,-2.60
2019-02-23T21:15:13.794Z,-2.60
2019-02-23T21:17:44.431Z,-2.60
2019-02-23T21:20:15.074Z,-2.60
2019-02-23T21:22:46.025Z,-2.60
2019-02-23T21:25:16.587Z,-2.60
2019-02-23T21:27:48.233Z,-2.60
2019-02-23T21:30:18.813Z,-2.60
2019-02-23T21:32:49.409Z,-2.70
2019-02-23T21:35:20.061Z,-2.70
2019-02-23T21:37:50.553Z,-2.70
2019-02-23T21:40:21.113Z,-2.70
2019-02-23T21:42:51.635Z,-2.70
2019-02-23T21:45:22.139Z,-2.70
2019-02-23T21:47:52.745Z,-2.70
2019-02-23T21:50:23.341Z,-2.70
2019-02-23T21:52:53.912Z,-2.70
2019-02-23T21:55:24.603Z,-2.60
2019-02-23T21:57:55.280Z,-2.60
2019-02-23T22:00:25.851Z,-2.60
2019-02-23T22:02:56.421Z,-2.60
2019-02-23T22:05:26.975Z,-2.60
2019-02-23T22:07:57.545Z,-2.60
2019-02-23T22:10:28.093Z,-2.70
2019-02-23T22:12:58.753Z,-2.70
2019-02-23T22:15:29.444Z,-2.70
2019-02-23T22:17:59.949Z,-2.70
2019-02-23T22:20:30.542Z,-2.80
2019-02-23T22:23:02.074Z,-2.80
2019-02-23T22:25:32.733Z,-2.90
2019-02-23T22:28:03.351Z,-2.90
2019-02-23T22:30:33.956Z,-2.90
2019-02-23T22:33:04.424Z,-2.90
2019-02-23T22:35:34.944Z,-3.00
2019-02-23T22:38:05.505Z,-3.00
2019-02-23T22:40:36.034Z,-3.00
2019-02-23T22:43:06.590Z,-3.00
2019-02-23T22:45:37.117Z,-3.00
2019-02-23T22:48:07.697Z,-3.00
2019-02-23T22:50:38.199Z,-3.00
2019-02-23T22:53:08.679Z,-2.90
2019-02-23T22:55:39.235Z,-2.90
2019-02-23T22:58:09.759Z,-2.90
2019-02-23T23:00:53.849Z,-2.90
2019-02-23T23:03:25.418Z,-3.00
2019-02-23T23:05:55.999Z,-3.00
2019-02-23T23:08:26.536Z,-3.00
2019-02-23T23:10:57.048Z,-3.10
2019-02-23T23:13:27.631Z,-3.10
2019-02-23T23:15:58.190Z,-3.10
2019-02-23T23:18:28.667Z,-3.10
2019-02-23T23:20:59.246Z,-3.20
2019-02-23T23:23:29.929Z,-3.20
2019-02-23T23:26:00.449Z,-3.20
2019-02-23T23:28:31.033Z,-3.20
2019-02-23T23:31:01.591Z,-3.30
2019-02-23T23:33:32.087Z,-3.30
2019-02-23T23:36:02.616Z,-3.30
2019-02-23T23:38:33.123Z,-3.30
2019-02-23T23:41:03.677Z,-3.30
2019-02-23T23:43:34.161Z,-3.30
2019-02-23T23:46:04.760Z,-3.30
2019-02-23T23:48:35.243Z,-3.30
2019-02-23T23:51:05.753Z,-3.30
2019-02-23T23:53:36.235Z,-3.30
2019-02-23T23:56:07.779Z,-3.20
2019-02-23T23:58:38.283Z,-3.20
